| 2/25/2026 | Sit Investment Associates Inc. | 1,241,695 | $12.48M | 0.2% | +33.3% | 0.000% | |
| 2/18/2026 | NewEdge Advisors LLC | 139,571 | $1.50M | 0.0% | +500.1% | 0.000% | |
| 2/18/2026 | Rivernorth Capital Management LLC | 1,476,073 | $14.84M | 0.7% | +1.9% | 0.000% | |
| 2/17/2026 | Guggenheim Capital LLC | 164,566 | $1.65M | 0.0% | -50.2% | 0.000% | |
| 2/17/2026 | Osaic Holdings Inc. | 31,755 | $319K | 0.0% | +14.6% | 0.000% | |
| 2/13/2026 | Van ECK Associates Corp | 182,931 | $1.84M | 0.0% | +25.7% | 0.000% | |
| 2/13/2026 | Wells Fargo & Company MN | 66,402 | $667K | 0.0% | -14.7% | 0.000% | |
| 2/12/2026 | StoneX Group Inc. | 148,316 | $1.49M | 0.1% | +3.2% | 0.000% | |
| 2/12/2026 | Steward Partners Investment Advisory LLC | 9,054 | $91K | 0.0% | +21.5% | 0.000% | |
| 2/12/2026 | Sit Investment Associates Inc. | 1,241,695 | $12.48M | 0.2% | +33.3% | 0.000% | |
Get the Latest News and Ratings for MQT and Related Stocks Enter your email address below to receive the latest news and analysts' ratings for BlackRock MuniYield Quality Fund II and its competitors with MarketBeat's FREE daily newsletter.
|
| 2/12/2026 | Nuveen LLC | 21,471 | $216K | 0.0% | +67.1% | 0.000% | |
| 2/11/2026 | Wellspring Financial Advisors LLC | 19,872 | $200K | 0.0% | +88.0% | 0.000% | |
| 2/11/2026 | LPL Financial LLC | 70,126 | $705K | 0.0% | +21.7% | 0.000% | |
| 2/11/2026 | Fiera Capital Corp | 187,974 | $1.89M | 0.0% | +6.3% | 0.000% | |
| 2/11/2026 | Ackerman Capital Advisors LLC | 20,579 | $207K | 0.0% | N/A | 0.000% | |
| 2/6/2026 | HighTower Advisors LLC | 20,319 | $204K | 0.0% | +14.3% | 0.000% | |
| 2/5/2026 | Elyxium Wealth LLC | 2,747 | $28K | 0.0% | N/A | 0.000% | |
| 2/3/2026 | Total Investment Management Inc. | 12,311 | $124K | 0.0% | -19.4% | 0.000% | |
| 2/2/2026 | Wolverine Asset Management LLC | 106,835 | $1.07M | 0.0% | +23.7% | 0.000% | |
| 1/29/2026 | Verdence Capital Advisors LLC | 12,513 | $126K | 0.0% | N/A | 0.000% | |
| 1/29/2026 | Mackay Shields LLC | 1,008,573 | $10.14M | 0.4% | -1.8% | 0.000% | |
| 1/26/2026 | River Street Advisors LLC | 12,044 | $121K | 0.0% | N/A | 0.000% | |
| 1/20/2026 | Stratos Wealth Partners LTD. | 32,571 | $327K | 0.0% | +25.1% | 0.000% | |
| 1/14/2026 | Hennion & Walsh Asset Management Inc. | 339,580 | $3.41M | 0.1% | -5.5% | 0.000% | |
| 1/13/2026 | Dakota Wealth Management | 11,201 | $113K | 0.0% | N/A | 0.000% | |
| 1/6/2026 | Canal Capital Management LLC | 22,297 | $224K | 0.0% | +50.1% | 0.000% | |
| 11/17/2025 | Susquehanna International Group LLP | 15,056 | $151K | 0.0% | -54.0% | 0.000% | |
| 11/17/2025 | Bank of America Corp DE | 208,799 | $2.09M | 0.0% | -11.6% | 0.000% | |
| 11/17/2025 | Ameriprise Financial Inc. | 33,825 | $339K | 0.0% | +4.9% | 0.000% | |
| 11/14/2025 | Raymond James Financial Inc. | 674,204 | $6.76M | 0.0% | +10.1% | 0.000% | |
| 11/13/2025 | Pathstone Holdings LLC | 279,215 | $2.80M | 0.0% | +9.8% | 0.000% | |
| 11/13/2025 | Franklin Resources Inc. | 17,000 | $171K | 0.0% | -21.4% | 0.000% | |
| 11/13/2025 | Van ECK Associates Corp | 145,555 | $1.46M | 0.0% | +4.3% | 0.000% | |
| 11/13/2025 | Yakira Capital Management Inc. | 32,236 | $323K | 0.1% | N/A | 0.000% | |
| 11/13/2025 | First Trust Advisors LP | 10,461 | $105K | 0.0% | -9.2% | 0.000% | |
| 11/7/2025 | Fiera Capital Corp | 176,805 | $1.77M | 0.0% | -0.9% | 0.000% | |
| 11/7/2025 | Rothschild Investment LLC | 2,500 | $25K | 0.0% | -95.1% | 0.000% | |
| 11/6/2025 | Whipplewood Advisors LLC | 35,014 | $351K | 0.2% | +3.4% | 0.000% | |
| 11/6/2025 | Stratos Wealth Partners LTD. | 26,027 | $261K | 0.0% | +128.9% | 0.000% | |
| 11/5/2025 | Lokken Investment Group LLC | 22,757 | $228K | 0.1% | +64.7% | 0.000% | |
|
| 11/4/2025 | High Note Wealth LLC | 2,809 | $28K | 0.0% | -58.1% | 0.000% | |
| 10/28/2025 | Wolverine Asset Management LLC | 86,366 | $866K | 0.0% | -18.5% | 0.000% | |
| 10/28/2025 | Kennedy Investment Group | 19,690 | $197K | 0.1% | -51.7% | 0.000% | |
| 10/22/2025 | Hennion & Walsh Asset Management Inc. | 359,217 | $3.60M | 0.1% | +8.7% | 0.000% | |
| 9/4/2025 | Osaic Holdings Inc. | 12,727 | $123K | 0.0% | +62.4% | 0.000% | |
| 8/18/2025 | Nomura Holdings Inc. | 10,000 | $96K | 0.0% | N/A | 0.000% | |
| 8/18/2025 | Hollencrest Capital Management | 3,480 | $34K | 0.0% | -53.1% | 0.000% | |
| 8/15/2025 | Bank of America Corp DE | 236,291 | $2.28M | 0.0% | +7.5% | 0.000% | |
| 8/14/2025 | Raymond James Financial Inc. | 612,604 | $5.91M | 0.0% | +16.3% | 0.000% | |
| 8/14/2025 | Karpus Management Inc. | 348,061 | $3.36M | 0.1% | +307.9% | 0.000% | |
| 8/14/2025 | NewEdge Advisors LLC | 23,836 | $230K | 0.0% | -5.5% | 0.000% | |
| 8/13/2025 | StoneX Group Inc. | 146,676 | $1.41M | 0.1% | +13.0% | 0.000% | |
| 8/13/2025 | Guggenheim Capital LLC | 431,444 | $4.16M | 0.0% | -4.7% | 0.000% | |
| 8/13/2025 | Elevation Point Wealth Partners LLC | 6,100 | $59K | 0.0% | N/A | 0.000% | |
| 8/12/2025 | Advisors Asset Management Inc. | 148,006 | $1.43M | 0.0% | -23.2% | 0.000% | |
| 8/12/2025 | Horizon Kinetics Asset Management LLC | 43,950 | $424K | 0.0% | +11.0% | 0.000% | |
| 8/12/2025 | Franklin Resources Inc. | 21,635 | $209K | 0.0% | N/A | 0.000% | |
| 8/8/2025 | Fiera Capital Corp | 178,361 | $1.72M | 0.0% | -0.7% | 0.000% | |
| 8/5/2025 | Freestone Capital Holdings LLC | 48,600 | $469K | 0.0% | +69.9% | 0.000% | |
| 8/4/2025 | Wolverine Asset Management LLC | 105,924 | $1.02M | 0.0% | +118.7% | 0.000% | |
| 7/31/2025 | Whipplewood Advisors LLC | 33,867 | $326K | 0.2% | +209.0% | 0.000% | |
| 7/29/2025 | Stratos Wealth Partners LTD. | 11,371 | $110K | 0.0% | N/A | 0.000% | |
| 7/25/2025 | Ackerman Capital Advisors LLC | 11,790 | $114K | 0.0% | -17.8% | 0.000% | |
| 7/16/2025 | Kennedy Investment Group | 40,792 | $393K | 0.2% | -10.9% | 0.000% | |
| 5/16/2025 | NewEdge Advisors LLC | 25,236 | $252K | 0.0% | +8.6% | 0.112% | |
| 5/16/2025 | AQR Arbitrage LLC | 12,526 | $125K | 0.0% | -77.5% | 0.056% | |
| 5/16/2025 | Advisors Asset Management Inc. | 192,615 | $1.93M | 0.0% | -36.7% | 0.855% | |
| 5/15/2025 | Retirement Planning Co of New England Inc. | 42,000 | $420K | 0.2% | N/A | 0.187% | |
| 5/13/2025 | Raymond James Financial Inc. | 526,772 | $5.27M | 0.0% | +5.3% | 2.339% | |
| 5/13/2025 | Sit Investment Associates Inc. | 423,520 | $4.24M | 0.1% | +49.3% | 1.881% | |
| 5/13/2025 | HighTower Advisors LLC | 18,619 | $186K | 0.0% | -18.0% | 0.083% | |
| 5/12/2025 | Nuveen LLC | 26,618 | $266K | 0.0% | N/A | 0.118% | |
| 5/12/2025 | Virtu Financial LLC | 10,419 | $104K | 0.0% | -43.5% | 0.046% | |
| 5/12/2025 | Invesco Ltd. | 38,177 | $382K | 0.0% | -49.3% | 0.170% | |
| 5/12/2025 | Wolverine Asset Management LLC | 48,427 | $484K | 0.0% | +414.6% | 0.215% | |
| 5/9/2025 | Ackerman Capital Advisors LLC | 14,346 | $143K | 0.0% | -46.3% | 0.064% | |
| 5/7/2025 | Fiera Capital Corp | 179,576 | $1.80M | 0.0% | -7.8% | 0.798% | |
| 5/2/2025 | Retirement Planning Co of New England Inc. | 42,000 | $420K | 0.1% | N/A | 0.187% | |
| 5/1/2025 | High Note Wealth LLC | 7,361 | $74K | 0.0% | -41.5% | 0.033% | |
| 4/29/2025 | Mackay Shields LLC | 1,026,805 | $10.27M | 0.3% | +3.5% | 4.560% | |
| 4/22/2025 | Kennedy Investment Group | 45,763 | $458K | 0.2% | -8.7% | 0.203% | |
| 4/15/2025 | Noble Wealth Management PBC | 18,592 | $186K | 0.1% | +6.9% | 0.083% | |
| 4/14/2025 | Capital Investment Advisors LLC | 15,770 | $158K | 0.0% | +8.2% | 0.070% | |
| 4/10/2025 | Hennion & Walsh Asset Management Inc. | 191,337 | $1.91M | 0.1% | +476.1% | 0.850% | |
| 4/10/2025 | Whipplewood Advisors LLC | 10,960 | $110K | 0.0% | -67.5% | 0.049% | |
| 4/8/2025 | Rothschild Investment LLC | 50,933 | $509K | 0.0% | -7.7% | 0.226% | |
| 2/18/2025 | Elequin Capital LP | 3,937 | $39K | 0.0% | N/A | 0.017% | |
| 2/17/2025 | Nomura Holdings Inc. | 20,610 | $203K | 0.0% | N/A | 0.092% | |
| 2/17/2025 | Nuveen Asset Management LLC | 48,173 | $475K | 0.0% | +43.3% | 0.214% | |
| 2/17/2025 | Logan Stone Capital LLC | 78,119 | $770K | 0.3% | -17.5% | 0.347% | |
|
| 2/17/2025 | Citadel Advisors LLC | 12,201 | $120K | 0.0% | N/A | 0.054% | |
| 2/17/2025 | Ameriprise Financial Inc. | 34,750 | $343K | 0.0% | +9.4% | 0.154% | |
| 2/14/2025 | AQR Arbitrage LLC | 55,671 | $549K | 0.0% | -49.7% | 0.247% | |
| 2/14/2025 | Stifel Financial Corp | 32,006 | $316K | 0.0% | -8.5% | 0.142% | |
| 2/14/2025 | First Trust Advisors LP | 12,524 | $123K | 0.0% | -16.0% | 0.056% | |
| 2/13/2025 | NewEdge Advisors LLC | 23,236 | $229K | 0.0% | +27.4% | 0.103% | |
| 2/13/2025 | Guggenheim Capital LLC | 499,159 | $4.92M | 0.0% | +32.5% | 2.217% | |
| 2/13/2025 | Raymond James Financial Inc. | 500,437 | $4.93M | 0.0% | N/A | 2.222% | |
| 2/13/2025 | Invesco Ltd. | 75,227 | $742K | 0.0% | -31.7% | 0.334% | |
| 2/13/2025 | Sit Investment Associates Inc. | 283,593 | $2.80M | 0.1% | +3.7% | 1.259% | |